KAUG/AUG METAR and TAF weather

Enter ICAO airport designator
Station Type Date Time Source
KAUG METAR 2018/01/16 08:53 UTC NOAA

KAUG 160853Z AUTO 02007KT 10SM OVC028 M11/M14 A3050 RMK AO2 SLP337 T11111139 58003


Station Type Date Time Source
KAUG Decoded METAR 2018/01/16 08:53 UTC NOAA

AUGUSTA STATE AIRPORT, ME, United States (KAUG) 44-19N 069-48W 109M
Jan 16, 2018 - 03:53 AM EST / 2018.01.16 0853 UTC
Wind: from the NNE (020 degrees) at 8 MPH (7 KT):0
Visibility: 10 mile(s):0
Sky conditions: overcast
Temperature: 12.0 F (-11.1 C)
Windchill: 0 F (-18 C):1
Dew Point: 7.0 F (-13.9 C)
Relative Humidity: 79%
Pressure (altimeter): 30.5 in. Hg (1032 hPa)
Pressure tendency: 0.01 inches (0.3 hPa) lower than three hours ago
ob: KAUG 160853Z AUTO 02007KT 10SM OVC028 M11/M14 A3050 RMK AO2 SLP337 T11111139 58003
cycle: 9

Station Type Date Time Source
KAUG TAF 2018/01/16 09:22 UTC NOAA

TAF
AMD KAUG 160919Z 1609/1706 01007KT P6SM OVC030
FM161400 VRB03KT P6SM BKN035 PROB30 1703/1706 4SM -SN BR OVC020


Example: see airport list